Time;durP1;ratioP1;P1;durP2;ratioP2;P2;SDS_P1;SDS_P2;PMS_P1;PMS_P2;Temp;Humidity;BMP_temperature;BMP_pressure;BME280_temperature;BME280_humidity;BME280_pressure;Samples;Min_cycle;Max_cycle;Signal;HPM_P1;HPM_P2
2023/09/13 00:01:43;;;;;;;;;;;21.50;55.80;;;17.64;100.00;95450.06;5011965;28;20063;-52
2023/09/13 00:04:09;;;;;;;;;;;21.50;55.80;;;17.61;100.00;95451.50;5013113;28;20244;-55
2023/09/13 00:06:35;;;;;;;;;;;21.50;55.90;;;17.57;100.00;95453.22;5012351;28;19913;-49
2023/09/13 00:09:01;;;;;;;;;;;21.50;56.00;;;17.47;100.00;95443.53;5008614;28;19909;-50
2023/09/13 00:11:26;;;;;;;;;;;21.40;56.00;;;17.39;100.00;95440.81;5012601;28;19909;-55
2023/09/13 00:13:52;;;;;;;;;;;21.40;56.20;;;17.41;100.00;95439.38;5011364;28;19916;-54
2023/09/13 00:16:18;;;;;;;;;;;21.40;56.30;;;17.39;100.00;95436.22;5001792;28;19968;-53
2023/09/13 00:18:44;;;;;;;;;;;21.40;56.30;;;17.38;100.00;95441.91;5011935;28;20347;-54
2023/09/13 00:21:11;;;;;;;;;;;21.30;56.40;;;17.32;100.00;95433.19;4991994;28;19937;-53
2023/09/13 00:23:37;;;;;;;;;;;21.30;56.50;;;17.22;100.00;95439.63;5004615;28;19958;-53
2023/09/13 00:26:04;;;;;;;;;;;21.20;56.50;;;17.15;100.00;95431.22;5018843;28;19998;-52
2023/09/13 00:28:30;;;;;;;;;;;21.20;56.60;;;17.13;100.00;95429.94;5012707;28;19913;-47
2023/09/13 00:30:57;;;;;;;;;;;21.20;56.70;;;17.14;100.00;95435.00;5009194;28;19917;-50
2023/09/13 00:33:23;;;;;;;;;;;21.10;56.70;;;17.09;100.00;95427.06;5004806;28;20335;-54
2023/09/13 00:35:54;;;;;;;;;;;21.10;56.80;;;17.15;100.00;95435.81;5012530;28;20055;-54
2023/09/13 00:38:20;;;;;;;;;;;21.10;57.00;;;17.27;100.00;95447.59;5003800;28;20018;-52
2023/09/13 00:40:46;;;;;;;;;;;21.10;57.00;;;17.31;100.00;95448.53;5012819;28;19909;-49
2023/09/13 00:43:11;;;;;;;;;;;21.20;57.10;;;17.33;100.00;95440.16;5011378;28;19931;-54
2023/09/13 00:45:38;;;;;;;;;;;21.20;57.10;;;17.33;100.00;95440.97;4985931;28;19909;-56
2023/09/13 00:48:05;;;;;;;;;;;21.20;57.10;;;17.30;100.00;95441.56;4994840;28;20283;-50
2023/09/13 00:50:31;;;;;;;;;;;21.10;57.00;;;17.27;100.00;95439.50;5003717;28;19909;-55
2023/09/13 00:52:58;;;;;;;;;;;21.10;57.00;;;17.22;100.00;95441.53;5012038;28;19920;-54
2023/09/13 00:55:26;;;;;;;;;;;21.10;57.10;;;17.18;100.00;95435.97;4998382;28;19916;-51
2023/09/13 00:57:54;;;;;;;;;;;21.10;57.10;;;17.14;100.00;95431.50;5012209;28;19916;-53
2023/09/13 01:00:22;;;;;;;;;;;21.10;57.10;;;17.11;100.00;95428.34;5011033;28;19916;-52
2023/09/13 01:02:49;;;;;;;;;;;21.00;57.10;;;17.07;100.00;95421.19;4993218;28;19909;-54
2023/09/13 01:05:17;;;;;;;;;;;21.00;57.20;;;17.00;100.00;95412.78;5011852;28;19913;-50
2023/09/13 01:07:46;;;;;;;;;;;21.00;57.20;;;16.94;100.00;95409.41;5011420;28;20008;-49
2023/09/13 01:10:13;;;;;;;;;;;20.90;57.30;;;16.96;100.00;95412.59;5010657;28;19909;-53
2023/09/13 01:12:39;;;;;;;;;;;20.90;57.40;;;16.93;100.00;95418.59;5011046;28;19909;-51
2023/09/13 01:15:07;;;;;;;;;;;20.90;57.40;;;16.92;100.00;95421.59;5011467;28;20318;-52
2023/09/13 01:17:59;;;;;;;;;;;20.90;57.50;;;16.93;100.00;95433.94;5011500;28;20450;-51
2023/09/13 01:20:24;;;;;;;;;;;20.80;57.50;;;16.91;100.00;95428.88;5010911;28;19954;-50
2023/09/13 01:23:22;;;;;;;;;;;20.80;57.60;;;16.91;100.00;95436.16;5011235;28;19909;-53
2023/09/13 01:26:33;;;;;;;;;;;20.80;57.60;;;16.90;100.00;95432.66;5010845;28;19909;-50
2023/09/13 01:29:02;;;;;;;;;;;20.80;57.60;;;16.89;100.00;95436.44;5010841;28;19963;-48
2023/09/13 01:31:31;;;;;;;;;;;20.80;57.70;;;16.84;100.00;95420.44;4988280;28;20004;-55
2023/09/13 01:33:56;;;;;;;;;;;20.80;57.70;;;16.80;100.00;95431.03;5005767;28;19959;-51
2023/09/13 01:36:22;;;;;;;;;;;20.80;57.80;;;16.81;100.00;95429.13;5011785;28;19909;-54
2023/09/13 01:38:48;;;;;;;;;;;20.70;57.80;;;16.79;100.00;95429.44;5010276;28;20003;-52
2023/09/13 01:41:54;;;;;;;;;;;20.80;57.90;;;16.78;100.00;95427.84;5010614;28;19912;-52
2023/09/13 01:44:21;;;;;;;;;;;20.70;57.80;;;16.75;100.00;95431.16;4989681;28;20292;-55
2023/09/13 01:46:48;;;;;;;;;;;20.70;57.90;;;16.70;100.00;95442.00;5011303;28;19920;-53
2023/09/13 01:49:18;;;;;;;;;;;20.70;57.90;;;16.68;100.00;95449.59;5005416;28;20012;-53
2023/09/13 01:51:45;;;;;;;;;;;20.60;57.90;;;16.66;100.00;95438.34;5005399;28;19909;-55
2023/09/13 01:54:11;;;;;;;;;;;20.60;58.00;;;16.63;100.00;95444.31;5010271;28;19917;-51
2023/09/13 01:56:36;;;;;;;;;;;20.60;58.10;;;16.56;100.00;95442.06;5010284;28;19913;-51
2023/09/13 01:59:02;;;;;;;;;;;20.50;58.60;;;16.48;100.00;95450.84;5011172;28;19913;-54
2023/09/13 02:01:28;;;;;;;;;;;20.50;58.10;;;16.40;100.00;95454.28;5010790;28;20470;-55
2023/09/13 02:03:54;;;;;;;;;;;20.40;58.10;;;16.30;100.00;95460.69;5011416;28;19940;-53
2023/09/13 02:06:20;;;;;;;;;;;20.40;58.10;;;16.21;100.00;95469.78;5011273;28;19913;-51
2023/09/13 02:08:46;;;;;;;;;;;20.30;58.10;;;16.15;100.00;95477.16;5010326;28;19915;-53
2023/09/13 02:11:12;;;;;;;;;;;20.20;58.20;;;16.05;100.00;95469.31;5009815;28;19945;-55
2023/09/13 02:13:38;;;;;;;;;;;20.20;58.20;;;15.98;100.00;95475.06;5009950;28;19916;-49
2023/09/13 02:16:04;;;;;;;;;;;20.10;58.20;;;15.88;100.00;95465.34;5010667;28;19924;-54
2023/09/13 02:18:30;;;;;;;;;;;20.00;58.20;;;15.75;100.00;95460.00;5010916;28;19915;-55
2023/09/13 02:20:56;;;;;;;;;;;19.90;58.30;;;15.78;100.00;95454.03;5010003;28;19913;-52
2023/09/13 02:23:22;;;;;;;;;;;19.90;58.40;;;15.75;100.00;95455.41;5011384;28;19916;-54
2023/09/13 02:25:47;;;;;;;;;;;19.80;58.50;;;15.72;100.00;95456.03;5009992;28;19916;-55
2023/09/13 02:28:14;;;;;;;;;;;19.80;58.60;;;15.63;100.00;95463.16;5010719;28;19919;-53
2023/09/13 02:30:40;;;;;;;;;;;19.70;58.70;;;15.60;100.00;95461.06;5011121;28;19909;-51
2023/09/13 02:33:06;;;;;;;;;;;19.70;58.70;;;15.56;100.00;95462.78;5010874;28;19909;-51
2023/09/13 02:35:33;;;;;;;;;;;19.60;58.70;;;15.49;100.00;95457.81;5014775;28;19916;-53
2023/09/13 02:38:00;;;;;;;;;;;19.60;58.80;;;15.43;100.00;95456.31;5013944;28;19916;-50
2023/09/13 02:40:26;;;;;;;;;;;19.50;58.80;;;15.37;100.00;95460.97;5014437;28;19908;-50
2023/09/13 02:42:52;;;;;;;;;;;19.50;58.90;;;15.32;100.00;95452.22;5013514;28;19913;-47
2023/09/13 02:45:18;;;;;;;;;;;19.40;59.00;;;15.33;100.00;95459.97;5013976;28;19913;-54
2023/09/13 02:47:44;;;;;;;;;;;19.40;59.10;;;15.36;100.00;95458.59;5014451;28;20008;-51
2023/09/13 02:50:10;;;;;;;;;;;19.40;59.30;;;15.39;100.00;95461.47;5002765;28;20410;-47
2023/09/13 02:52:37;;;;;;;;;;;19.40;59.30;;;15.40;100.00;95454.22;5014693;28;19944;-52
2023/09/13 02:55:07;;;;;;;;;;;19.40;59.40;;;15.42;100.00;95454.72;5012896;28;19920;-51
2023/09/13 02:57:33;;;;;;;;;;;19.40;59.40;;;15.40;100.00;95449.63;5014443;28;20299;-54
2023/09/13 03:00:00;;;;;;;;;;;19.40;59.40;;;15.40;100.00;95446.16;5014047;28;19917;-52
2023/09/13 03:02:26;;;;;;;;;;;19.40;59.40;;;15.40;100.00;95443.47;5013367;28;19909;-52
2023/09/13 03:04:53;;;;;;;;;;;19.40;59.50;;;15.40;100.00;95455.00;5014346;28;19909;-55
2023/09/13 03:07:20;;;;;;;;;;;19.50;59.60;;;15.41;100.00;95451.22;5013189;28;19967;-54
2023/09/13 03:09:50;;;;;;;;;;;19.50;59.60;;;15.44;100.00;95455.19;5014059;28;19996;-55
2023/09/13 03:12:16;;;;;;;;;;;19.50;59.70;;;15.44;100.00;95456.00;5014182;28;19913;-53
2023/09/13 03:14:42;;;;;;;;;;;19.50;59.70;;;15.46;100.00;95453.81;5012458;28;19959;-52
2023/09/13 03:17:11;;;;;;;;;;;19.50;59.80;;;15.47;100.00;95452.72;5013883;28;20372;-51
2023/09/13 03:19:36;;;;;;;;;;;19.50;59.80;;;15.48;100.00;95457.00;5012563;28;19967;-54
2023/09/13 03:22:02;;;;;;;;;;;19.50;59.70;;;15.49;100.00;95450.53;5013678;28;19909;-56
2023/09/13 03:24:28;;;;;;;;;;;19.60;59.80;;;15.46;100.00;95453.81;5013424;28;19992;-55
2023/09/13 03:26:54;;;;;;;;;;;19.60;59.80;;;15.53;100.00;95449.94;5012634;28;19917;-51
2023/09/13 03:29:19;;;;;;;;;;;19.60;59.90;;;15.49;100.00;95434.44;5013288;28;19967;-51
2023/09/13 03:31:45;;;;;;;;;;;19.60;59.90;;;15.55;100.00;95443.19;5004690;28;20388;-54
2023/09/13 03:34:11;;;;;;;;;;;19.60;59.90;;;15.57;100.00;95434.81;5009602;28;19948;-51
2023/09/13 03:36:37;;;;;;;;;;;19.60;59.90;;;15.54;100.00;95438.09;5013460;28;19959;-50
2023/09/13 03:39:04;;;;;;;;;;;19.60;59.90;;;15.52;100.00;95438.41;5012601;28;20023;-49
2023/09/13 03:41:30;;;;;;;;;;;19.50;59.90;;;15.53;100.00;95434.63;5012366;28;19952;-49
2023/09/13 03:43:56;;;;;;;;;;;19.50;59.90;;;15.53;100.00;95441.88;5012262;28;19909;-52
2023/09/13 03:46:21;;;;;;;;;;;19.50;60.00;;;15.48;100.00;95442.75;5012169;28;19935;-49
2023/09/13 03:48:47;;;;;;;;;;;19.50;60.00;;;15.45;100.00;95446.88;5012137;28;19909;-54
2023/09/13 03:51:14;;;;;;;;;;;19.50;60.00;;;15.44;100.00;95455.19;5013168;28;19921;-54
2023/09/13 03:53:40;;;;;;;;;;;19.50;60.10;;;15.41;100.00;95455.78;5012992;28;19917;-50
2023/09/13 03:56:06;;;;;;;;;;;19.40;60.20;;;15.40;100.00;95459.59;5010718;28;19980;-53
2023/09/13 03:58:34;;;;;;;;;;;19.50;60.30;;;15.42;100.00;95454.72;5012767;28;19909;-52
2023/09/13 04:01:01;;;;;;;;;;;19.50;60.30;;;15.43;100.00;95459.00;5012560;28;20385;-53
2023/09/13 04:03:27;;;;;;;;;;;19.50;60.40;;;15.44;100.00;95460.56;4992395;28;19916;-53
2023/09/13 04:05:53;;;;;;;;;;;19.50;60.40;;;15.43;100.00;95462.47;5004842;28;19916;-52
2023/09/13 04:08:19;;;;;;;;;;;19.50;60.40;;;15.42;100.00;95452.03;5010407;28;19913;-55
2023/09/13 04:10:45;;;;;;;;;;;19.50;60.50;;;15.46;100.00;95461.06;4995393;28;19959;-48
2023/09/13 04:13:11;;;;;;;;;;;19.50;60.50;;;15.46;100.00;95451.13;5011709;28;19948;-51
2023/09/13 04:18:14;;;;;;;;;;;19.50;60.60;;;15.46;100.00;95459.19;5008368;28;19921;-45
2023/09/13 04:20:42;;;;;;;;;;;19.60;60.70;;;15.47;100.00;95466.13;5014121;28;19913;-45
2023/09/13 04:23:08;;;;;;;;;;;19.60;60.80;;;15.55;100.00;95456.59;5012427;28;19959;-46
2023/09/13 04:25:36;;;;;;;;;;;19.60;60.80;;;15.58;100.00;95465.97;5012138;28;19913;-48
2023/09/13 04:28:01;;;;;;;;;;;19.60;60.90;;;15.60;100.00;95469.13;4994404;28;20349;-45
2023/09/13 04:30:27;;;;;;;;;;;19.60;60.90;;;15.59;100.00;95476.38;5012820;28;19996;-45
2023/09/13 04:32:53;;;;;;;;;;;19.70;60.90;;;15.63;100.00;95474.69;5021062;28;19976;-47
2023/09/13 04:35:19;;;;;;;;;;;19.70;60.90;;;15.66;100.00;95474.09;5012843;28;19916;-46
2023/09/13 04:37:44;;;;;;;;;;;19.80;61.00;;;15.68;100.00;95487.25;5011753;28;19909;-47
2023/09/13 04:40:10;;;;;;;;;;;19.80;61.00;;;15.70;100.00;95490.44;5012660;28;19999;-44
2023/09/13 04:43:15;;;;;;;;;;;19.80;61.00;;;15.73;100.00;95492.50;5012360;28;19909;-49
2023/09/13 04:45:41;;;;;;;;;;;19.80;61.10;;;15.75;100.00;95486.84;5017463;28;19999;-48
2023/09/13 04:48:06;;;;;;;;;;;19.80;61.10;;;15.81;100.00;95480.28;5012294;28;20220;-45
2023/09/13 04:50:32;;;;;;;;;;;19.80;61.20;;;15.84;100.00;95480.47;5007247;28;20374;-45
2023/09/13 04:52:58;;;;;;;;;;;19.90;61.20;;;15.84;100.00;95491.22;5015211;28;19923;-44
2023/09/13 04:55:26;;;;;;;;;;;19.90;61.30;;;15.88;100.00;95483.34;5011161;28;20379;-47
2023/09/13 04:57:52;;;;;;;;;;;19.90;61.20;;;15.91;100.00;95494.28;5011184;28;19913;-46
2023/09/13 05:00:18;;;;;;;;;;;19.90;61.30;;;15.95;100.00;95491.78;5014603;28;19915;-47
2023/09/13 05:02:44;;;;;;;;;;;19.90;61.40;;;15.98;100.00;95495.78;5011311;28;19917;-45
2023/09/13 05:05:10;;;;;;;;;;;20.00;61.60;;;16.03;100.00;95498.38;5012264;28;19909;-45
2023/09/13 05:07:36;;;;;;;;;;;20.00;61.50;;;16.06;100.00;95500.44;5011188;28;20009;-47
2023/09/13 05:10:01;;;;;;;;;;;20.00;61.60;;;16.07;100.00;95508.19;5012028;28;19909;-44
2023/09/13 05:12:27;;;;;;;;;;;20.10;61.60;;;16.10;100.00;95515.66;5012027;28;19908;-45
2023/09/13 05:14:53;;;;;;;;;;;20.10;61.60;;;16.12;100.00;95513.47;5010618;28;19944;-47
2023/09/13 05:17:19;;;;;;;;;;;20.10;61.60;;;16.16;100.00;95510.97;5011716;28;19933;-47
2023/09/13 05:19:44;;;;;;;;;;;20.10;61.60;;;16.19;100.00;95518.44;5002617;28;20334;-45
2023/09/13 05:22:10;;;;;;;;;;;20.20;61.60;;;16.22;100.00;95517.84;5018233;28;19913;-45
2023/09/13 05:24:36;;;;;;;;;;;20.20;61.60;;;16.25;100.00;95525.28;5004605;28;20290;-44
2023/09/13 05:27:02;;;;;;;;;;;20.30;61.70;;;16.28;100.00;95534.66;5001500;28;19921;-44
2023/09/13 05:29:28;;;;;;;;;;;20.30;61.60;;;16.30;100.00;95533.25;5008014;28;19975;-47
2023/09/13 05:31:54;;;;;;;;;;;20.40;61.60;;;16.33;100.00;95529.19;5006257;28;19913;-44
2023/09/13 05:34:19;;;;;;;;;;;20.40;61.60;;;16.31;100.00;95526.78;5010820;28;20012;-48
2023/09/13 05:36:45;;;;;;;;;;;20.40;61.60;;;16.33;100.00;95527.28;5010254;28;19909;-46
2023/09/13 05:39:11;;;;;;;;;;;20.50;61.70;;;16.38;100.00;95531.75;4997116;28;19968;-49
2023/09/13 05:41:38;;;;;;;;;;;20.50;61.70;;;16.40;100.00;95524.19;5005745;28;20000;-47
2023/09/13 05:44:09;;;;;;;;;;;20.50;61.60;;;16.34;100.00;95522.69;4999943;28;19914;-46
2023/09/13 05:46:35;;;;;;;;;;;20.50;61.60;;;16.40;100.00;95518.81;5019448;28;19917;-47
2023/09/13 05:49:01;;;;;;;;;;;20.60;61.70;;;16.45;100.00;95513.28;5008727;28;20322;-46
2023/09/13 05:51:26;;;;;;;;;;;20.60;61.70;;;16.49;100.00;95503.53;5008697;28;19908;-44
2023/09/13 05:53:52;;;;;;;;;;;20.60;61.70;;;16.52;100.00;95508.31;5012795;28;19909;-47
2023/09/13 05:56:18;;;;;;;;;;;20.70;61.70;;;16.58;100.00;95501.72;5002523;28;20003;-45
2023/09/13 05:58:44;;;;;;;;;;;20.70;61.10;;;16.61;100.00;95497.63;5016258;28;19909;-45
2023/09/13 06:01:13;;;;;;;;;;;20.80;61.60;;;16.66;100.00;95498.28;5010386;28;19909;-45
2023/09/13 06:03:39;;;;;;;;;;;20.90;61.60;;;16.72;100.00;95500.88;5007110;28;20368;-45
2023/09/13 06:06:05;;;;;;;;;;;20.90;61.70;;;16.78;100.00;95505.84;4997869;28;19971;-44
2023/09/13 06:08:31;;;;;;;;;;;21.00;61.70;;;16.84;100.00;95509.22;5005096;28;19909;-45
2023/09/13 06:10:57;;;;;;;;;;;21.00;61.70;;;16.86;100.00;95499.75;5011814;28;20282;-45
2023/09/13 06:13:22;;;;;;;;;;;21.10;61.70;;;16.82;100.00;95501.44;5007813;28;19916;-45
2023/09/13 06:15:48;;;;;;;;;;;21.10;61.60;;;16.90;100.00;95499.94;5014832;28;19952;-48
2023/09/13 06:18:14;;;;;;;;;;;21.20;61.60;;;16.97;100.00;95505.66;5011535;28;20295;-45
2023/09/13 06:20:40;;;;;;;;;;;21.30;61.70;;;17.03;100.00;95511.72;5013371;28;20291;-47
2023/09/13 06:23:06;;;;;;;;;;;21.30;62.40;;;17.07;100.00;95510.78;5032840;28;19948;-46
2023/09/13 06:25:31;;;;;;;;;;;21.40;61.60;;;17.08;100.00;95522.38;5027959;28;20371;-45
2023/09/13 06:27:57;;;;;;;;;;;21.50;61.60;;;17.12;100.00;95515.25;5007015;28;19913;-45
2023/09/13 06:30:23;;;;;;;;;;;21.50;61.50;;;17.16;100.00;95520.81;5034729;28;19966;-45
2023/09/13 06:32:49;;;;;;;;;;;21.50;61.40;;;17.19;100.00;95518.31;5027033;28;19963;-46
2023/09/13 06:35:15;;;;;;;;;;;21.60;61.40;;;17.17;100.00;95519.69;5026075;28;19951;-45
2023/09/13 06:37:42;;;;;;;;;;;21.60;61.30;;;17.24;100.00;95515.50;5023451;28;19909;-48
2023/09/13 06:40:08;;;;;;;;;;;21.60;61.30;;;17.30;100.00;95518.84;5013443;28;19924;-45
2023/09/13 06:42:34;;;;;;;;;;;21.70;61.40;;;17.33;100.00;95524.41;5017744;28;19916;-47
2023/09/13 06:45:02;;;;;;;;;;;21.70;61.30;;;17.38;100.00;95522.69;5012077;28;19961;-47
2023/09/13 06:47:28;;;;;;;;;;;21.80;61.40;;;17.41;100.00;95524.75;5018100;28;20427;-46
2023/09/13 06:49:55;;;;;;;;;;;21.80;61.40;;;17.42;100.00;95527.13;5013715;28;19999;-47
2023/09/13 06:52:21;;;;;;;;;;;21.80;61.40;;;17.37;100.00;95532.66;5019645;28;19916;-46
2023/09/13 06:54:47;;;;;;;;;;;21.80;61.30;;;17.40;100.00;95533.94;5034395;28;19913;-45
2023/09/13 06:57:13;;;;;;;;;;;21.80;61.30;;;17.42;100.00;95535.19;5009830;28;19909;-45
2023/09/13 06:59:39;;;;;;;;;;;21.90;61.30;;;17.43;100.00;95544.88;5013786;28;20356;-47
2023/09/13 07:02:06;;;;;;;;;;;21.90;61.20;;;17.46;100.00;95538.88;5019693;28;19909;-46
2023/09/13 07:04:32;;;;;;;;;;;21.90;61.20;;;17.45;100.00;95541.88;5006232;28;19908;-46
2023/09/13 07:06:58;;;;;;;;;;;21.90;61.10;;;17.46;100.00;95543.47;5019211;28;19916;-49
2023/09/13 07:09:24;;;;;;;;;;;21.90;61.10;;;17.48;100.00;95542.03;5010562;28;19913;-45
2023/09/13 07:11:49;;;;;;;;;;;22.00;61.10;;;17.51;100.00;95543.34;5034132;28;19916;-45
2023/09/13 07:14:15;;;;;;;;;;;22.00;61.80;;;17.54;100.00;95540.81;5009089;28;20364;-50
2023/09/13 07:16:41;;;;;;;;;;;22.10;61.00;;;17.58;100.00;95532.94;5007333;28;19917;-49
2023/09/13 07:19:07;;;;;;;;;;;22.10;61.00;;;17.61;100.00;95534.97;4999400;28;20371;-45
2023/09/13 07:21:32;;;;;;;;;;;22.20;60.90;;;17.65;100.00;95541.34;5021550;28;19974;-47
2023/09/13 07:23:58;;;;;;;;;;;22.20;60.80;;;17.63;100.00;95543.56;5034066;28;19917;-47
2023/09/13 07:26:24;;;;;;;;;;;22.30;60.80;;;17.65;100.00;95549.44;5017705;28;20299;-48
2023/09/13 07:28:50;;;;;;;;;;;22.40;60.70;;;17.70;100.00;95553.88;5016817;28;19916;-46
2023/09/13 07:31:16;;;;;;;;;;;22.40;60.70;;;17.74;100.00;95565.63;5027536;28;19909;-47
2023/09/13 07:33:42;;;;;;;;;;;22.40;60.70;;;17.78;100.00;95564.72;5020572;28;19915;-47
2023/09/13 07:36:08;;;;;;;;;;;22.40;60.70;;;17.83;100.00;95563.00;5033533;28;20007;-44
2023/09/13 07:38:34;;;;;;;;;;;22.50;60.80;;;17.90;100.00;95569.53;5016172;28;19935;-46
2023/09/13 07:41:00;;;;;;;;;;;22.50;60.80;;;17.94;100.00;95567.00;5033808;28;19908;-45
2023/09/13 07:43:27;;;;;;;;;;;22.50;60.80;;;17.97;100.00;95564.47;5022029;28;20375;-49
2023/09/13 07:45:53;;;;;;;;;;;22.60;60.80;;;17.98;100.00;95565.28;5007464;28;19999;-45
2023/09/13 07:48:19;;;;;;;;;;;22.60;60.80;;;18.00;100.00;95568.47;5033652;28;20331;-46
2023/09/13 07:50:45;;;;;;;;;;;22.70;60.70;;;18.00;100.00;95565.75;5010576;28;20257;-46
2023/09/13 07:53:12;;;;;;;;;;;22.70;60.70;;;18.07;100.00;95576.09;5031392;28;19916;-44
2023/09/13 07:55:39;;;;;;;;;;;22.70;60.60;;;18.12;100.00;95582.13;5019374;28;19996;-49
2023/09/13 07:58:06;;;;;;;;;;;22.80;60.60;;;18.13;100.00;95591.81;5024409;28;20290;-47
2023/09/13 08:00:32;;;;;;;;;;;22.80;60.60;;;18.16;100.00;95587.69;5033485;28;19908;-49
2023/09/13 08:03:00;;;;;;;;;;;22.90;60.50;;;18.18;100.00;95588.19;5019561;28;19919;-47
2023/09/13 08:05:26;;;;;;;;;;;22.90;60.40;;;18.24;100.00;95590.41;5030710;28;19909;-49
2023/09/13 08:07:53;;;;;;;;;;;22.90;60.30;;;18.29;100.00;95592.16;5019045;28;19920;-50
2023/09/13 08:10:21;;;;;;;;;;;23.00;60.40;;;18.32;100.00;95591.53;5017096;28;19908;-48
2023/09/13 08:12:48;;;;;;;;;;;23.10;60.30;;;18.38;100.00;95592.19;5033210;28;19931;-49
2023/09/13 08:15:14;;;;;;;;;;;23.20;60.20;;;18.48;100.00;95599.97;5012694;28;19913;-47
2023/09/13 08:17:40;;;;;;;;;;;23.20;60.10;;;18.60;100.00;95596.69;5003175;28;20020;-47
2023/09/13 08:20:08;;;;;;;;;;;23.30;60.00;;;18.67;100.00;95600.50;5013389;28;20007;-47
2023/09/13 08:22:38;;;;;;;;;;;23.40;60.00;;;18.71;100.00;95606.88;5011844;28;19908;-45
2023/09/13 08:25:04;;;;;;;;;;;23.50;59.90;;;18.83;100.00;95606.25;5008081;28;19923;-48
2023/09/13 08:27:31;;;;;;;;;;;23.60;59.80;;;18.98;100.00;95618.50;5015700;28;19924;-47
2023/09/13 08:29:57;;;;;;;;;;;23.70;59.80;;;19.08;100.00;95618.16;5019625;28;19908;-46
2023/09/13 08:32:23;;;;;;;;;;;23.90;59.80;;;19.15;100.00;95623.13;4998025;28;20279;-46
2023/09/13 08:34:49;;;;;;;;;;;24.00;59.70;;;19.31;100.00;95623.44;5010649;28;20339;-45
2023/09/13 08:37:16;;;;;;;;;;;24.10;59.60;;;19.47;100.00;95629.13;5011009;28;19913;-49
2023/09/13 08:39:42;;;;;;;;;;;24.30;59.50;;;19.56;100.00;95630.69;5012552;28;20007;-47
2023/09/13 08:42:09;;;;;;;;;;;24.40;59.40;;;19.70;100.00;95640.56;5012494;28;20411;-46
2023/09/13 08:44:37;;;;;;;;;;;24.50;59.30;;;19.73;100.00;95640.69;5011129;28;20291;-47
2023/09/13 08:47:08;;;;;;;;;;;24.70;59.20;;;19.81;100.00;95639.91;5011177;28;19917;-46
2023/09/13 08:49:35;;;;;;;;;;;24.80;59.00;;;19.90;100.00;95652.56;5009672;28;19975;-51
2023/09/13 08:52:04;;;;;;;;;;;25.00;58.80;;;19.97;97.16;95647.50;5011798;28;19908;-45
2023/09/13 08:54:32;;;;;;;;;;;25.10;58.50;;;20.07;97.24;95639.03;5011133;28;20342;-47
2023/09/13 08:56:59;;;;;;;;;;;25.30;58.40;;;20.18;95.43;95644.84;5007735;28;19955;-49
2023/09/13 08:59:25;;;;;;;;;;;25.40;58.20;;;20.32;94.20;95648.94;5010643;28;19909;-49
2023/09/13 09:01:54;;;;;;;;;;;25.60;58.00;;;20.45;91.97;95649.84;5015411;28;20352;-47
2023/09/13 09:04:21;;;;;;;;;;;25.70;57.80;;;20.62;90.40;95650.88;5007290;28;20283;-46
2023/09/13 09:06:47;;;;;;;;;;;25.90;57.70;;;20.77;92.25;95648.41;5007576;28;19924;-50
2023/09/13 09:09:19;;;;;;;;;;;26.00;57.50;;;20.96;90.32;95644.47;5006591;28;20371;-48
2023/09/13 09:11:54;;;;;;;;;;;26.30;57.30;;;21.19;89.82;95655.78;5007106;28;20378;-51
2023/09/13 09:14:22;;;;;;;;;;;26.50;57.10;;;21.27;87.16;95652.22;5012703;28;20493;-47
2023/09/13 09:16:53;;;;;;;;;;;26.70;56.90;;;21.39;86.82;95657.72;5005968;28;19967;-49
2023/09/13 09:19:20;;;;;;;;;;;26.90;56.60;;;21.58;85.13;95653.72;4997894;28;20443;-46
2023/09/13 09:21:46;;;;;;;;;;;27.20;56.40;;;21.75;84.08;95658.19;4994868;28;19913;-46
2023/09/13 09:24:12;;;;;;;;;;;27.40;56.20;;;21.98;84.19;95655.91;4991705;28;20344;-46
2023/09/13 09:26:38;;;;;;;;;;;27.70;56.00;;;22.12;83.47;95661.78;5011940;28;20006;-47
2023/09/13 09:29:18;;;;;;;;;;;27.80;55.80;;;22.26;79.78;95665.03;5008855;28;19917;-48
2023/09/13 09:31:44;;;;;;;;;;;28.00;55.50;;;22.40;80.10;95661.97;5009820;28;19916;-47
2023/09/13 09:34:14;;;;;;;;;;;28.10;55.30;;;22.44;78.34;95654.75;5006277;28;19955;-47
2023/09/13 09:36:46;;;;;;;;;;;28.20;55.20;;;22.48;78.18;95660.28;5020126;28;19962;-48
2023/09/13 09:39:13;;;;;;;;;;;28.30;55.00;;;22.54;76.99;95648.09;5001976;28;19913;-50
2023/09/13 09:41:39;;;;;;;;;;;28.40;54.60;;;22.63;76.46;95648.75;5004655;28;20040;-51
2023/09/13 09:44:06;;;;;;;;;;;28.60;54.40;;;22.74;76.01;95649.88;4989437;28;20004;-47
2023/09/13 09:46:33;;;;;;;;;;;28.80;54.20;;;22.84;75.33;95649.41;4996350;28;19921;-48
2023/09/13 09:49:03;;;;;;;;;;;29.00;53.90;;;22.75;75.00;95656.91;5010163;28;20346;-46
2023/09/13 09:51:30;;;;;;;;;;;29.20;53.60;;;22.86;75.51;95655.28;5002255;28;19923;-46
2023/09/13 09:53:56;;;;;;;;;;;29.20;53.20;;;23.08;74.03;95651.31;5006478;28;19916;-49
2023/09/13 09:56:22;;;;;;;;;;;29.30;52.90;;;23.13;72.63;95653.03;5007935;28;19909;-46
2023/09/13 09:58:49;;;;;;;;;;;29.40;52.80;;;23.12;72.38;95659.56;5007709;28;19917;-51
2023/09/13 10:01:18;;;;;;;;;;;29.50;52.40;;;23.14;70.59;95661.97;4995035;28;20371;-49
2023/09/13 10:03:45;;;;;;;;;;;29.40;52.10;;;23.03;71.32;95662.44;4995939;28;19909;-49
2023/09/13 10:06:15;;;;;;;;;;;29.40;51.70;;;23.03;70.72;95661.63;5008863;28;19909;-52
2023/09/13 10:08:49;;;;;;;;;;;29.30;51.70;;;22.83;72.16;95660.63;4997539;28;20417;-47
2023/09/13 10:11:22;;;;;;;;;;;29.30;51.60;;;22.85;73.06;95663.78;5009673;28;19917;-49
2023/09/13 10:13:48;;;;;;;;;;;29.20;51.60;;;22.80;71.54;95659.38;5007547;28;19935;-48
2023/09/13 10:16:17;;;;;;;;;;;29.20;51.60;;;22.89;72.71;95656.53;5005757;28;19921;-46
2023/09/13 10:18:48;;;;;;;;;;;29.10;51.60;;;23.05;71.62;95659.38;5004903;28;19909;-48
2023/09/13 10:21:25;;;;;;;;;;;29.00;52.20;;;23.09;72.18;95657.53;4990745;28;19951;-47
2023/09/13 10:24:06;;;;;;;;;;;29.00;51.60;;;23.17;71.41;95667.50;5008160;28;19908;-47
2023/09/13 10:26:34;;;;;;;;;;;28.90;51.60;;;23.12;70.38;95667.72;5005475;28;19921;-49
2023/09/13 10:29:56;;;;;;;;;;;28.80;51.60;;;23.06;71.29;95663.66;5010295;28;20263;-48
2023/09/13 10:32:29;;;;;;;;;;;28.60;51.50;;;22.90;70.89;95665.47;5000466;28;19920;-47
2023/09/13 10:35:00;;;;;;;;;;;28.50;51.40;;;22.88;71.23;95663.09;5009426;28;19909;-49
2023/09/13 10:37:52;;;;;;;;;;;28.30;51.30;;;22.92;72.62;95661.28;5008130;28;20329;-50
2023/09/13 10:40:37;;;;;;;;;;;28.20;51.50;;;22.72;71.02;95657.56;5009838;28;19990;-46
2023/09/13 10:43:05;;;;;;;;;;;28.20;51.60;;;22.53;71.34;95658.16;4981881;28;20007;-53
2023/09/13 10:45:31;;;;;;;;;;;28.00;51.50;;;22.51;72.15;95659.63;5009822;28;19932;-52
2023/09/13 10:48:00;;;;;;;;;;;27.80;51.40;;;22.44;73.49;95662.91;5018524;28;20000;-46
2023/09/13 10:50:27;;;;;;;;;;;27.70;51.40;;;22.35;72.60;95651.34;5005217;28;20363;-47
2023/09/13 10:52:54;;;;;;;;;;;27.60;51.40;;;22.23;72.41;95654.06;5010634;28;19917;-46
2023/09/13 10:55:22;;;;;;;;;;;27.50;51.40;;;22.15;73.05;95652.97;5011024;28;19995;-47
2023/09/13 10:57:51;;;;;;;;;;;27.40;51.40;;;22.17;73.47;95658.91;5009629;28;20366;-47
2023/09/13 11:00:20;;;;;;;;;;;27.30;51.40;;;21.99;74.11;95652.84;5013614;28;19909;-47
2023/09/13 11:02:46;;;;;;;;;;;27.30;51.40;;;21.89;75.80;95656.78;5012911;28;19944;-48
2023/09/13 11:05:14;;;;;;;;;;;27.30;51.40;;;21.89;74.33;95655.97;5013031;28;19915;-51
2023/09/13 11:07:48;;;;;;;;;;;27.20;51.40;;;21.71;75.23;95663.47;5012687;28;19913;-47
2023/09/13 11:10:18;;;;;;;;;;;27.20;51.50;;;21.65;76.37;95662.91;5013744;28;19919;-52
2023/09/13 11:12:51;;;;;;;;;;;27.20;51.40;;;21.82;76.51;95667.38;5013797;28;19944;-46
2023/09/13 11:15:25;;;;;;;;;;;27.10;51.30;;;21.85;75.06;95653.16;5012669;28;19919;-49
2023/09/13 11:18:12;;;;;;;;;;;27.20;51.40;;;21.99;75.01;95665.59;5013142;28;19924;-46